OIIS  Semnan  Airport

Semnan, Iran

Add Bookmark
ICAO OIIS
Type Airport
Status Operational
Latitude
35° 35' 27" N
35.591099
Longitude
53° 29' 42" E
53.495098
Local (GMT +3.5 ) UTC
Sep 26, 2016 08:47 pm Sep 26, 2016 17:17
Sunrise-Sunset Local UTC
Begin Civil Twilight 05:20 am 01:50
Sunrise 05:46 am 02:16
Sunset 05:47 pm 14:17
End Civil Twilight 06:13 pm 14:43
VFR
VFR
MVFR
MVFR
IFR
IFR
LIFR
LIFR
Unknown
Unavailable

Current Weather

METAR Observed VFR
OIIS 261600Z 27002KT CAVOK 27/M03 Q1014 Mon, Sep 26, 2016 @ 16:00 UTC
(1 Hour, 17 Minutes ago)
Visual Flight Rules
Wind Visibility Conditions
270° at 2 knots (4 kph) 10 km or more
  • No significant weather
Temperatures Readings Precipitation
Current Temp
27°C
81°F
Dewpoint
-3°C
27°F
Humidity 14%
Altimeter 29.94" Hg
Sea Level Pressure 1,014 mb
Field Elevation
1,115 m
3,658 ft
None Recorded
-
-

CheckWX.com is intended as a tool to help pilots better visualize weather data. It is not intended as a substitute for an official weather briefing obtained from a Flight Service Station. CheckWX.com does not meet the FAA requirements for an official pre-flight weather briefing. Therefore, it's important that pilots still call and obtain an official FSS pre-flight weather briefing.

© 2007-2016 CheckWX.com
17:17:23 UTC